sensor_id;sensor_type;location;lat;lon;timestamp;P1;durP1;ratioP1;P2;durP2;ratioP2
39218;SDS011;24934;52.752;6.964;2022-09-09T00:00:40;23.20;;;21.38;;
39218;SDS011;24934;52.752;6.964;2022-09-09T00:03:14;23.10;;;21.40;;
39218;SDS011;24934;52.752;6.964;2022-09-09T00:06:16;22.83;;;21.10;;
39218;SDS011;24934;52.752;6.964;2022-09-09T00:08:51;23.88;;;22.05;;
39218;SDS011;24934;52.752;6.964;2022-09-09T00:11:40;23.25;;;21.55;;
39218;SDS011;24934;52.752;6.964;2022-09-09T00:14:23;23.52;;;21.73;;
39218;SDS011;24934;52.752;6.964;2022-09-09T00:17:00;24.02;;;22.23;;
39218;SDS011;24934;52.752;6.964;2022-09-09T00:19:49;23.50;;;21.60;;
39218;SDS011;24934;52.752;6.964;2022-09-09T00:22:25;23.00;;;21.30;;
39218;SDS011;24934;52.752;6.964;2022-09-09T00:24:56;23.48;;;21.67;;
39218;SDS011;24934;52.752;6.964;2022-09-09T00:27:44;24.15;;;22.25;;
39218;SDS011;24934;52.752;6.964;2022-09-09T00:32:48;23.85;;;21.70;;
39218;SDS011;24934;52.752;6.964;2022-09-09T00:35:23;22.63;;;20.92;;
39218;SDS011;24934;52.752;6.964;2022-09-09T00:38:08;22.40;;;20.70;;
39218;SDS011;24934;52.752;6.964;2022-09-09T00:40:40;23.13;;;21.42;;
39218;SDS011;24934;52.752;6.964;2022-09-09T00:43:28;22.48;;;20.77;;
39218;SDS011;24934;52.752;6.964;2022-09-09T00:48:53;22.70;;;21.00;;
39218;SDS011;24934;52.752;6.964;2022-09-09T00:51:51;22.55;;;20.85;;
39218;SDS011;24934;52.752;6.964;2022-09-09T00:59:57;23.00;;;21.30;;
39218;SDS011;24934;52.752;6.964;2022-09-09T01:02:52;23.83;;;21.73;;
39218;SDS011;24934;52.752;6.964;2022-09-09T01:08:03;23.77;;;21.98;;
39218;SDS011;24934;52.752;6.964;2022-09-09T01:10:41;23.80;;;21.92;;
39218;SDS011;24934;52.752;6.964;2022-09-09T01:13:16;23.75;;;21.85;;
39218;SDS011;24934;52.752;6.964;2022-09-09T01:15:55;24.00;;;22.10;;
39218;SDS011;24934;52.752;6.964;2022-09-09T01:18:23;22.65;;;20.88;;
39218;SDS011;24934;52.752;6.964;2022-09-09T01:29:16;23.35;;;21.55;;
39218;SDS011;24934;52.752;6.964;2022-09-09T01:32:02;22.10;;;20.40;;
39218;SDS011;24934;52.752;6.964;2022-09-09T01:34:48;21.80;;;20.10;;
39218;SDS011;24934;52.752;6.964;2022-09-09T01:37:15;21.83;;;20.17;;
39218;SDS011;24934;52.752;6.964;2022-09-09T01:39:41;22.30;;;20.60;;
39218;SDS011;24934;52.752;6.964;2022-09-09T01:42:09;21.80;;;20.10;;
39218;SDS011;24934;52.752;6.964;2022-09-09T01:44:38;22.08;;;20.38;;
39218;SDS011;24934;52.752;6.964;2022-09-09T01:47:04;22.17;;;20.48;;
39218;SDS011;24934;52.752;6.964;2022-09-09T01:49:30;23.02;;;21.23;;
39218;SDS011;24934;52.752;6.964;2022-09-09T01:51:57;23.70;;;21.48;;
39218;SDS011;24934;52.752;6.964;2022-09-09T01:54:24;22.52;;;20.73;;
39218;SDS011;24934;52.752;6.964;2022-09-09T02:02:30;22.42;;;20.73;;
39218;SDS011;24934;52.752;6.964;2022-09-09T02:05:06;22.50;;;20.70;;
39218;SDS011;24934;52.752;6.964;2022-09-09T02:08:00;22.33;;;20.52;;
39218;SDS011;24934;52.752;6.964;2022-09-09T02:10:37;22.48;;;20.75;;
39218;SDS011;24934;52.752;6.964;2022-09-09T02:13:17;25.80;;;23.70;;
39218;SDS011;24934;52.752;6.964;2022-09-09T02:16:00;23.00;;;21.20;;
39218;SDS011;24934;52.752;6.964;2022-09-09T02:18:41;22.90;;;21.02;;
39218;SDS011;24934;52.752;6.964;2022-09-09T02:21:28;22.95;;;21.05;;
39218;SDS011;24934;52.752;6.964;2022-09-09T02:23:56;22.85;;;21.02;;
39218;SDS011;24934;52.752;6.964;2022-09-09T02:26:29;23.08;;;21.17;;
39218;SDS011;24934;52.752;6.964;2022-09-09T02:28:57;23.67;;;21.73;;
39218;SDS011;24934;52.752;6.964;2022-09-09T02:31:26;23.27;;;21.27;;
39218;SDS011;24934;52.752;6.964;2022-09-09T02:33:57;23.48;;;21.13;;
39218;SDS011;24934;52.752;6.964;2022-09-09T02:36:26;23.15;;;21.25;;
39218;SDS011;24934;52.752;6.964;2022-09-09T02:38:55;22.67;;;20.77;;
39218;SDS011;24934;52.752;6.964;2022-09-09T02:41:28;22.48;;;20.67;;
39218;SDS011;24934;52.752;6.964;2022-09-09T02:44:00;23.80;;;21.70;;
39218;SDS011;24934;52.752;6.964;2022-09-09T02:46:36;23.45;;;21.00;;
39218;SDS011;24934;52.752;6.964;2022-09-09T02:49:14;24.13;;;22.13;;
39218;SDS011;24934;52.752;6.964;2022-09-09T02:51:53;23.95;;;21.95;;
39218;SDS011;24934;52.752;6.964;2022-09-09T02:56:58;22.45;;;20.65;;
39218;SDS011;24934;52.752;6.964;2022-09-09T02:59:27;22.40;;;20.70;;
39218;SDS011;24934;52.752;6.964;2022-09-09T03:01:54;21.40;;;19.80;;
39218;SDS011;24934;52.752;6.964;2022-09-09T03:04:19;20.65;;;19.05;;
39218;SDS011;24934;52.752;6.964;2022-09-09T03:06:45;19.83;;;18.42;;
39218;SDS011;24934;52.752;6.964;2022-09-09T03:09:11;20.30;;;18.80;;
39218;SDS011;24934;52.752;6.964;2022-09-09T03:11:36;20.65;;;18.85;;
39218;SDS011;24934;52.752;6.964;2022-09-09T03:14:03;20.55;;;18.95;;
39218;SDS011;24934;52.752;6.964;2022-09-09T03:16:29;20.23;;;18.73;;
39218;SDS011;24934;52.752;6.964;2022-09-09T03:18:55;20.20;;;18.55;;
39218;SDS011;24934;52.752;6.964;2022-09-09T03:21:21;19.80;;;18.30;;
39218;SDS011;24934;52.752;6.964;2022-09-09T03:23:46;20.85;;;19.20;;
39218;SDS011;24934;52.752;6.964;2022-09-09T03:26:12;20.08;;;18.58;;
39218;SDS011;24934;52.752;6.964;2022-09-09T03:28:39;20.25;;;18.75;;
39218;SDS011;24934;52.752;6.964;2022-09-09T03:31:06;21.40;;;19.63;;
39218;SDS011;24934;52.752;6.964;2022-09-09T03:33:36;20.75;;;19.15;;
39218;SDS011;24934;52.752;6.964;2022-09-09T03:36:02;19.55;;;18.15;;
39218;SDS011;24934;52.752;6.964;2022-09-09T03:38:28;20.35;;;18.75;;
39218;SDS011;24934;52.752;6.964;2022-09-09T03:40:54;21.08;;;19.48;;
39218;SDS011;24934;52.752;6.964;2022-09-09T03:43:22;21.67;;;20.08;;
39218;SDS011;24934;52.752;6.964;2022-09-09T03:45:48;23.02;;;21.23;;
39218;SDS011;24934;52.752;6.964;2022-09-09T03:48:15;22.10;;;20.40;;
39218;SDS011;24934;52.752;6.964;2022-09-09T03:50:48;23.20;;;21.50;;
39218;SDS011;24934;52.752;6.964;2022-09-09T03:53:16;22.88;;;21.17;;
39218;SDS011;24934;52.752;6.964;2022-09-09T03:55:47;21.85;;;20.25;;
39218;SDS011;24934;52.752;6.964;2022-09-09T03:58:15;23.42;;;21.63;;
39218;SDS011;24934;52.752;6.964;2022-09-09T04:00:43;23.77;;;21.88;;
39218;SDS011;24934;52.752;6.964;2022-09-09T04:03:18;22.52;;;20.83;;
39218;SDS011;24934;52.752;6.964;2022-09-09T04:05:43;21.67;;;20.00;;
39218;SDS011;24934;52.752;6.964;2022-09-09T04:08:09;23.42;;;21.52;;
39218;SDS011;24934;52.752;6.964;2022-09-09T04:10:34;21.83;;;20.13;;
39218;SDS011;24934;52.752;6.964;2022-09-09T04:13:03;21.85;;;20.17;;
39218;SDS011;24934;52.752;6.964;2022-09-09T04:15:30;22.05;;;20.35;;
39218;SDS011;24934;52.752;6.964;2022-09-09T04:17:55;22.05;;;20.35;;
39218;SDS011;24934;52.752;6.964;2022-09-09T04:20:21;22.63;;;20.88;;
39218;SDS011;24934;52.752;6.964;2022-09-09T04:22:47;23.60;;;21.80;;
39218;SDS011;24934;52.752;6.964;2022-09-09T04:25:13;23.70;;;21.52;;
39218;SDS011;24934;52.752;6.964;2022-09-09T04:27:39;23.92;;;22.02;;
39218;SDS011;24934;52.752;6.964;2022-09-09T04:30:05;22.92;;;21.10;;
39218;SDS011;24934;52.752;6.964;2022-09-09T04:32:32;22.98;;;21.15;;
39218;SDS011;24934;52.752;6.964;2022-09-09T04:34:58;22.23;;;20.55;;
39218;SDS011;24934;52.752;6.964;2022-09-09T04:37:24;23.23;;;21.50;;
39218;SDS011;24934;52.752;6.964;2022-09-09T04:39:50;24.92;;;22.90;;
39218;SDS011;24934;52.752;6.964;2022-09-09T04:42:15;22.63;;;20.92;;
39218;SDS011;24934;52.752;6.964;2022-09-09T04:44:42;23.63;;;21.83;;
39218;SDS011;24934;52.752;6.964;2022-09-09T04:47:08;23.10;;;21.20;;
39218;SDS011;24934;52.752;6.964;2022-09-09T04:49:35;22.92;;;21.17;;
39218;SDS011;24934;52.752;6.964;2022-09-09T04:52:01;23.40;;;21.60;;
39218;SDS011;24934;52.752;6.964;2022-09-09T04:54:28;23.00;;;21.17;;
39218;SDS011;24934;52.752;6.964;2022-09-09T04:56:54;24.05;;;22.15;;
39218;SDS011;24934;52.752;6.964;2022-09-09T04:59:19;24.35;;;22.45;;
39218;SDS011;24934;52.752;6.964;2022-09-09T05:01:46;25.05;;;23.05;;
39218;SDS011;24934;52.752;6.964;2022-09-09T05:04:12;25.90;;;23.80;;
39218;SDS011;24934;52.752;6.964;2022-09-09T05:06:39;26.95;;;24.35;;
39218;SDS011;24934;52.752;6.964;2022-09-09T05:09:04;25.42;;;23.50;;
39218;SDS011;24934;52.752;6.964;2022-09-09T05:11:31;26.20;;;24.17;;
39218;SDS011;24934;52.752;6.964;2022-09-09T05:13:57;26.73;;;24.67;;
39218;SDS011;24934;52.752;6.964;2022-09-09T05:16:23;26.15;;;24.10;;
39218;SDS011;24934;52.752;6.964;2022-09-09T05:18:49;26.27;;;24.17;;
39218;SDS011;24934;52.752;6.964;2022-09-09T05:21:16;25.52;;;23.55;;
39218;SDS011;24934;52.752;6.964;2022-09-09T05:23:44;25.83;;;23.83;;
39218;SDS011;24934;52.752;6.964;2022-09-09T05:26:14;25.90;;;23.90;;
39218;SDS011;24934;52.752;6.964;2022-09-09T05:28:42;26.70;;;24.60;;
39218;SDS011;24934;52.752;6.964;2022-09-09T05:31:08;26.90;;;24.33;;
39218;SDS011;24934;52.752;6.964;2022-09-09T05:33:36;26.70;;;24.60;;
39218;SDS011;24934;52.752;6.964;2022-09-09T05:36:05;26.00;;;23.90;;
39218;SDS011;24934;52.752;6.964;2022-09-09T05:38:33;26.38;;;24.27;;
39218;SDS011;24934;52.752;6.964;2022-09-09T05:41:00;26.05;;;23.98;;
39218;SDS011;24934;52.752;6.964;2022-09-09T05:43:27;25.98;;;23.88;;
39218;SDS011;24934;52.752;6.964;2022-09-09T05:46:01;26.37;;;24.27;;
39218;SDS011;24934;52.752;6.964;2022-09-09T05:48:36;24.80;;;22.80;;
39218;SDS011;24934;52.752;6.964;2022-09-09T05:51:05;25.70;;;23.60;;
39218;SDS011;24934;52.752;6.964;2022-09-09T05:53:32;26.45;;;24.35;;
39218;SDS011;24934;52.752;6.964;2022-09-09T05:56:03;26.95;;;24.75;;
39218;SDS011;24934;52.752;6.964;2022-09-09T05:58:35;26.98;;;24.77;;
39218;SDS011;24934;52.752;6.964;2022-09-09T06:01:05;26.38;;;24.23;;
39218;SDS011;24934;52.752;6.964;2022-09-09T06:03:33;28.90;;;26.55;;
39218;SDS011;24934;52.752;6.964;2022-09-09T06:06:00;27.33;;;25.23;;
39218;SDS011;24934;52.752;6.964;2022-09-09T06:08:30;26.17;;;24.08;;
39218;SDS011;24934;52.752;6.964;2022-09-09T06:11:03;25.17;;;23.27;;
39218;SDS011;24934;52.752;6.964;2022-09-09T06:13:31;25.35;;;23.35;;
39218;SDS011;24934;52.752;6.964;2022-09-09T06:15:57;25.60;;;23.63;;
39218;SDS011;24934;52.752;6.964;2022-09-09T06:18:23;25.52;;;23.60;;
39218;SDS011;24934;52.752;6.964;2022-09-09T06:21:00;24.13;;;22.33;;
39218;SDS011;24934;52.752;6.964;2022-09-09T06:23:29;25.80;;;23.48;;
39218;SDS011;24934;52.752;6.964;2022-09-09T06:29:04;25.08;;;23.15;;
39218;SDS011;24934;52.752;6.964;2022-09-09T06:31:30;25.73;;;23.73;;
39218;SDS011;24934;52.752;6.964;2022-09-09T06:33:59;24.85;;;23.00;;
39218;SDS011;24934;52.752;6.964;2022-09-09T06:36:29;26.70;;;24.27;;
39218;SDS011;24934;52.752;6.964;2022-09-09T06:38:56;27.10;;;25.00;;
39218;SDS011;24934;52.752;6.964;2022-09-09T06:41:23;29.35;;;26.80;;
39218;SDS011;24934;52.752;6.964;2022-09-09T06:43:51;29.63;;;27.33;;
39218;SDS011;24934;52.752;6.964;2022-09-09T06:46:18;27.60;;;25.60;;
39218;SDS011;24934;52.752;6.964;2022-09-09T06:48:46;25.55;;;23.55;;
39218;SDS011;24934;52.752;6.964;2022-09-09T06:51:14;25.02;;;23.02;;
39218;SDS011;24934;52.752;6.964;2022-09-09T06:53:41;27.75;;;25.65;;
39218;SDS011;24934;52.752;6.964;2022-09-09T06:58:34;25.88;;;23.88;;
39218;SDS011;24934;52.752;6.964;2022-09-09T07:01:02;26.95;;;24.95;;
39218;SDS011;24934;52.752;6.964;2022-09-09T07:03:28;27.95;;;25.85;;
39218;SDS011;24934;52.752;6.964;2022-09-09T07:05:54;28.02;;;25.83;;
39218;SDS011;24934;52.752;6.964;2022-09-09T07:08:21;27.05;;;25.05;;
39218;SDS011;24934;52.752;6.964;2022-09-09T07:10:47;26.85;;;24.55;;
39218;SDS011;24934;52.752;6.964;2022-09-09T07:13:13;26.80;;;24.80;;
39218;SDS011;24934;52.752;6.964;2022-09-09T07:15:41;24.67;;;22.77;;
39218;SDS011;24934;52.752;6.964;2022-09-09T07:18:09;25.60;;;23.33;;
39218;SDS011;24934;52.752;6.964;2022-09-09T07:20:35;25.92;;;23.88;;
39218;SDS011;24934;52.752;6.964;2022-09-09T07:23:01;25.75;;;23.73;;
39218;SDS011;24934;52.752;6.964;2022-09-09T07:25:26;25.45;;;23.50;;
39218;SDS011;24934;52.752;6.964;2022-09-09T07:27:53;26.42;;;24.25;;
39218;SDS011;24934;52.752;6.964;2022-09-09T07:30:19;26.45;;;24.45;;
39218;SDS011;24934;52.752;6.964;2022-09-09T07:32:45;23.40;;;21.50;;
39218;SDS011;24934;52.752;6.964;2022-09-09T07:35:11;23.35;;;21.55;;
39218;SDS011;24934;52.752;6.964;2022-09-09T07:37:37;23.35;;;21.48;;
39218;SDS011;24934;52.752;6.964;2022-09-09T07:40:03;22.80;;;21.00;;
39218;SDS011;24934;52.752;6.964;2022-09-09T07:42:29;23.45;;;21.45;;
39218;SDS011;24934;52.752;6.964;2022-09-09T07:44:55;22.25;;;20.65;;
39218;SDS011;24934;52.752;6.964;2022-09-09T07:47:21;21.15;;;19.55;;
39218;SDS011;24934;52.752;6.964;2022-09-09T07:49:46;20.10;;;18.60;;
39218;SDS011;24934;52.752;6.964;2022-09-09T07:52:14;20.77;;;19.15;;
39218;SDS011;24934;52.752;6.964;2022-09-09T07:54:41;20.20;;;18.30;;
39218;SDS011;24934;52.752;6.964;2022-09-09T07:57:07;20.15;;;18.65;;
39218;SDS011;24934;52.752;6.964;2022-09-09T07:59:32;18.70;;;17.10;;
39218;SDS011;24934;52.752;6.964;2022-09-09T08:01:58;18.58;;;17.27;;
39218;SDS011;24934;52.752;6.964;2022-09-09T08:04:24;17.35;;;16.15;;
39218;SDS011;24934;52.752;6.964;2022-09-09T08:06:52;17.67;;;16.40;;
39218;SDS011;24934;52.752;6.964;2022-09-09T08:09:22;18.23;;;16.83;;
39218;SDS011;24934;52.752;6.964;2022-09-09T08:11:51;18.50;;;16.63;;
39218;SDS011;24934;52.752;6.964;2022-09-09T08:14:17;17.63;;;16.27;;
39218;SDS011;24934;52.752;6.964;2022-09-09T08:16:44;16.90;;;15.63;;
39218;SDS011;24934;52.752;6.964;2022-09-09T08:19:12;17.02;;;15.93;;
39218;SDS011;24934;52.752;6.964;2022-09-09T08:21:40;16.77;;;15.57;;
39218;SDS011;24934;52.752;6.964;2022-09-09T08:24:07;15.40;;;14.40;;
39218;SDS011;24934;52.752;6.964;2022-09-09T08:26:36;16.27;;;15.18;;
39218;SDS011;24934;52.752;6.964;2022-09-09T08:29:03;16.58;;;15.43;;
39218;SDS011;24934;52.752;6.964;2022-09-09T08:31:38;15.60;;;14.50;;
39218;SDS011;24934;52.752;6.964;2022-09-09T08:34:05;26.73;;;16.15;;
39218;SDS011;24934;52.752;6.964;2022-09-09T08:36:36;16.27;;;15.18;;
39218;SDS011;24934;52.752;6.964;2022-09-09T08:39:10;14.88;;;13.88;;
39218;SDS011;24934;52.752;6.964;2022-09-09T08:53:03;14.95;;;13.95;;
39218;SDS011;24934;52.752;6.964;2022-09-09T08:58:12;13.90;;;13.00;;
39218;SDS011;24934;52.752;6.964;2022-09-09T09:01:14;14.65;;;13.40;;
39218;SDS011;24934;52.752;6.964;2022-09-09T09:12:22;14.18;;;13.27;;
39218;SDS011;24934;52.752;6.964;2022-09-09T09:14:50;13.80;;;12.90;;
39218;SDS011;24934;52.752;6.964;2022-09-09T09:17:19;14.05;;;13.15;;
39218;SDS011;24934;52.752;6.964;2022-09-09T09:19:48;13.45;;;12.65;;
39218;SDS011;24934;52.752;6.964;2022-09-09T09:25:20;13.15;;;12.27;;
39218;SDS011;24934;52.752;6.964;2022-09-09T09:30:44;12.60;;;11.80;;
39218;SDS011;24934;52.752;6.964;2022-09-09T09:33:18;13.10;;;12.30;;
39218;SDS011;24934;52.752;6.964;2022-09-09T09:35:50;12.57;;;11.80;;
39218;SDS011;24934;52.752;6.964;2022-09-09T09:40:54;11.50;;;10.80;;
39218;SDS011;24934;52.752;6.964;2022-09-09T09:43:29;12.70;;;11.90;;
39218;SDS011;24934;52.752;6.964;2022-09-09T09:45:57;13.35;;;12.52;;
39218;SDS011;24934;52.752;6.964;2022-09-09T09:48:24;10.82;;;10.23;;
39218;SDS011;24934;52.752;6.964;2022-09-09T09:50:55;12.57;;;11.77;;
39218;SDS011;24934;52.752;6.964;2022-09-09T09:53:31;12.98;;;11.82;;
39218;SDS011;24934;52.752;6.964;2022-09-09T09:56:08;11.20;;;10.50;;
39218;SDS011;24934;52.752;6.964;2022-09-09T10:01:24;11.70;;;11.00;;
39218;SDS011;24934;52.752;6.964;2022-09-09T10:04:00;11.10;;;10.40;;
39218;SDS011;24934;52.752;6.964;2022-09-09T10:06:31;11.10;;;10.40;;
39218;SDS011;24934;52.752;6.964;2022-09-09T10:09:03;11.32;;;10.63;;
39218;SDS011;24934;52.752;6.964;2022-09-09T10:14:20;11.05;;;10.35;;
39218;SDS011;24934;52.752;6.964;2022-09-09T10:16:56;12.32;;;11.40;;
39218;SDS011;24934;52.752;6.964;2022-09-09T10:19:38;11.82;;;11.13;;
39218;SDS011;24934;52.752;6.964;2022-09-09T10:28:05;12.65;;;11.48;;
39218;SDS011;24934;52.752;6.964;2022-09-09T10:30:45;11.55;;;10.65;;
39218;SDS011;24934;52.752;6.964;2022-09-09T10:39:00;11.00;;;10.30;;
39218;SDS011;24934;52.752;6.964;2022-09-09T10:41:47;10.77;;;10.07;;
39218;SDS011;24934;52.752;6.964;2022-09-09T11:00:05;11.70;;;10.95;;
39218;SDS011;24934;52.752;6.964;2022-09-09T11:02:39;11.63;;;10.68;;
39218;SDS011;24934;52.752;6.964;2022-09-09T11:05:09;11.27;;;10.57;;
39218;SDS011;24934;52.752;6.964;2022-09-09T11:08:26;10.73;;;10.02;;
39218;SDS011;24934;52.752;6.964;2022-09-09T11:13:14;11.38;;;10.63;;
39218;SDS011;24934;52.752;6.964;2022-09-09T11:15:45;11.43;;;10.73;;
39218;SDS011;24934;52.752;6.964;2022-09-09T11:18:20;12.48;;;11.38;;
39218;SDS011;24934;52.752;6.964;2022-09-09T11:20:49;11.88;;;11.18;;
39218;SDS011;24934;52.752;6.964;2022-09-09T11:23:40;11.38;;;10.25;;
39218;SDS011;24934;52.752;6.964;2022-09-09T11:26:07;11.18;;;10.48;;
39218;SDS011;24934;52.752;6.964;2022-09-09T11:29:01;10.50;;;9.80;;
39218;SDS011;24934;52.752;6.964;2022-09-09T11:34:26;10.75;;;9.80;;
39218;SDS011;24934;52.752;6.964;2022-09-09T11:37:02;10.60;;;9.90;;
39218;SDS011;24934;52.752;6.964;2022-09-09T11:40:00;11.43;;;10.35;;
39218;SDS011;24934;52.752;6.964;2022-09-09T11:42:30;10.85;;;10.20;;
39218;SDS011;24934;52.752;6.964;2022-09-09T11:44:55;11.57;;;10.80;;
39218;SDS011;24934;52.752;6.964;2022-09-09T11:50:06;10.65;;;9.90;;
39218;SDS011;24934;52.752;6.964;2022-09-09T11:53:03;10.52;;;9.93;;
39218;SDS011;24934;52.752;6.964;2022-09-09T11:55:30;10.07;;;9.48;;
39218;SDS011;24934;52.752;6.964;2022-09-09T11:58:02;11.40;;;10.70;;
39218;SDS011;24934;52.752;6.964;2022-09-09T12:02:58;10.43;;;9.82;;
39218;SDS011;24934;52.752;6.964;2022-09-09T12:05:36;11.18;;;10.38;;
39218;SDS011;24934;52.752;6.964;2022-09-09T12:08:09;11.45;;;10.65;;
39218;SDS011;24934;52.752;6.964;2022-09-09T12:10:38;11.25;;;10.55;;
39218;SDS011;24934;52.752;6.964;2022-09-09T12:15:54;12.77;;;11.98;;
39218;SDS011;24934;52.752;6.964;2022-09-09T12:18:25;12.07;;;11.27;;
39218;SDS011;24934;52.752;6.964;2022-09-09T12:20:59;12.20;;;11.40;;
39218;SDS011;24934;52.752;6.964;2022-09-09T12:23:37;11.70;;;11.00;;
39218;SDS011;24934;52.752;6.964;2022-09-09T12:26:22;11.18;;;10.48;;
39218;SDS011;24934;52.752;6.964;2022-09-09T12:29:41;9.23;;;8.73;;
39218;SDS011;24934;52.752;6.964;2022-09-09T12:31:47;9.63;;;8.93;;
39218;SDS011;24934;52.752;6.964;2022-09-09T12:37:14;10.50;;;9.90;;
39218;SDS011;24934;52.752;6.964;2022-09-09T12:42:45;10.57;;;9.98;;
39218;SDS011;24934;52.752;6.964;2022-09-09T12:48:06;20.20;;;18.80;;
39218;SDS011;24934;52.752;6.964;2022-09-09T12:50:37;18.42;;;17.02;;
39218;SDS011;24934;52.752;6.964;2022-09-09T12:53:10;19.48;;;18.08;;
39218;SDS011;24934;52.752;6.964;2022-09-09T12:55:48;17.23;;;16.00;;
39218;SDS011;24934;52.752;6.964;2022-09-09T12:58:16;18.77;;;17.58;;
39218;SDS011;24934;52.752;6.964;2022-09-09T13:00:53;18.27;;;17.17;;
39218;SDS011;24934;52.752;6.964;2022-09-09T13:03:23;13.60;;;12.80;;
39218;SDS011;24934;52.752;6.964;2022-09-09T13:05:50;14.23;;;13.43;;
39218;SDS011;24934;52.752;6.964;2022-09-09T13:08:16;14.98;;;13.40;;
39218;SDS011;24934;52.752;6.964;2022-09-09T13:13:21;14.13;;;13.27;;
39218;SDS011;24934;52.752;6.964;2022-09-09T13:16:18;14.48;;;13.57;;
39218;SDS011;24934;52.752;6.964;2022-09-09T13:18:55;13.60;;;12.80;;
39218;SDS011;24934;52.752;6.964;2022-09-09T13:21:30;14.57;;;13.68;;
39218;SDS011;24934;52.752;6.964;2022-09-09T13:23:57;13.25;;;12.45;;
39218;SDS011;24934;52.752;6.964;2022-09-09T13:26:28;13.85;;;13.05;;
39218;SDS011;24934;52.752;6.964;2022-09-09T13:28:55;13.23;;;12.43;;
39218;SDS011;24934;52.752;6.964;2022-09-09T13:31:33;14.23;;;13.32;;
39218;SDS011;24934;52.752;6.964;2022-09-09T13:34:22;14.77;;;13.88;;
39218;SDS011;24934;52.752;6.964;2022-09-09T13:37:09;18.08;;;13.50;;
39218;SDS011;24934;52.752;6.964;2022-09-09T13:39:50;13.93;;;13.13;;
39218;SDS011;24934;52.752;6.964;2022-09-09T13:42:24;13.02;;;12.23;;
39218;SDS011;24934;52.752;6.964;2022-09-09T13:44:56;13.68;;;12.68;;
39218;SDS011;24934;52.752;6.964;2022-09-09T13:47:37;13.00;;;12.20;;
39218;SDS011;24934;52.752;6.964;2022-09-09T13:50:20;12.27;;;11.57;;
39218;SDS011;24934;52.752;6.964;2022-09-09T13:52:54;13.13;;;12.32;;
39218;SDS011;24934;52.752;6.964;2022-09-09T13:55:23;12.88;;;12.07;;
39218;SDS011;24934;52.752;6.964;2022-09-09T13:57:58;13.43;;;12.63;;
39218;SDS011;24934;52.752;6.964;2022-09-09T14:00:30;12.45;;;11.75;;
39218;SDS011;24934;52.752;6.964;2022-09-09T14:02:58;13.68;;;12.70;;
39218;SDS011;24934;52.752;6.964;2022-09-09T14:05:26;13.48;;;12.68;;
39218;SDS011;24934;52.752;6.964;2022-09-09T14:07:52;14.02;;;13.02;;
39218;SDS011;24934;52.752;6.964;2022-09-09T14:10:18;12.50;;;11.80;;
39218;SDS011;24934;52.752;6.964;2022-09-09T14:12:43;12.65;;;11.88;;
39218;SDS011;24934;52.752;6.964;2022-09-09T14:15:10;11.82;;;11.13;;
39218;SDS011;24934;52.752;6.964;2022-09-09T14:17:36;26.17;;;11.80;;
39218;SDS011;24934;52.752;6.964;2022-09-09T14:20:05;11.88;;;11.18;;
39218;SDS011;24934;52.752;6.964;2022-09-09T14:22:36;11.15;;;10.55;;
39218;SDS011;24934;52.752;6.964;2022-09-09T14:25:04;10.82;;;10.23;;
39218;SDS011;24934;52.752;6.964;2022-09-09T14:27:30;10.90;;;10.30;;
39218;SDS011;24934;52.752;6.964;2022-09-09T14:29:56;11.77;;;11.05;;
39218;SDS011;24934;52.752;6.964;2022-09-09T14:32:22;13.18;;;11.95;;
39218;SDS011;24934;52.752;6.964;2022-09-09T14:34:48;11.80;;;11.10;;
39218;SDS011;24934;52.752;6.964;2022-09-09T14:37:15;12.20;;;11.50;;
39218;SDS011;24934;52.752;6.964;2022-09-09T14:39:41;11.77;;;11.07;;
39218;SDS011;24934;52.752;6.964;2022-09-09T14:42:09;11.60;;;10.90;;
39218;SDS011;24934;52.752;6.964;2022-09-09T14:44:38;11.50;;;10.80;;
39218;SDS011;24934;52.752;6.964;2022-09-09T14:47:07;11.82;;;11.00;;
39218;SDS011;24934;52.752;6.964;2022-09-09T14:49:34;11.85;;;11.15;;
39218;SDS011;24934;52.752;6.964;2022-09-09T14:52:00;11.30;;;10.63;;
39218;SDS011;24934;52.752;6.964;2022-09-09T14:54:26;11.35;;;10.65;;
39218;SDS011;24934;52.752;6.964;2022-09-09T14:56:53;10.52;;;9.93;;
39218;SDS011;24934;52.752;6.964;2022-09-09T14:59:19;10.40;;;9.80;;
39218;SDS011;24934;52.752;6.964;2022-09-09T15:01:44;10.13;;;9.52;;
39218;SDS011;24934;52.752;6.964;2022-09-09T15:04:10;9.27;;;8.77;;
39218;SDS011;24934;52.752;6.964;2022-09-09T15:06:37;10.48;;;9.57;;
39218;SDS011;24934;52.752;6.964;2022-09-09T15:09:04;9.68;;;9.18;;
39218;SDS011;24934;52.752;6.964;2022-09-09T15:11:30;9.68;;;9.18;;
39218;SDS011;24934;52.752;6.964;2022-09-09T15:14:02;9.40;;;8.90;;
39218;SDS011;24934;52.752;6.964;2022-09-09T15:16:31;9.95;;;9.35;;
39218;SDS011;24934;52.752;6.964;2022-09-09T15:18:58;9.75;;;9.23;;
39218;SDS011;24934;52.752;6.964;2022-09-09T15:21:26;10.10;;;9.50;;
39218;SDS011;24934;52.752;6.964;2022-09-09T15:23:54;10.40;;;9.80;;
39218;SDS011;24934;52.752;6.964;2022-09-09T15:26:21;10.00;;;9.40;;
39218;SDS011;24934;52.752;6.964;2022-09-09T15:28:47;10.85;;;10.20;;
39218;SDS011;24934;52.752;6.964;2022-09-09T15:31:19;10.00;;;9.40;;
39218;SDS011;24934;52.752;6.964;2022-09-09T15:33:53;9.68;;;9.18;;
39218;SDS011;24934;52.752;6.964;2022-09-09T15:36:26;10.70;;;10.10;;
39218;SDS011;24934;52.752;6.964;2022-09-09T15:38:57;10.27;;;9.48;;
39218;SDS011;24934;52.752;6.964;2022-09-09T15:41:25;10.27;;;9.68;;
39218;SDS011;24934;52.752;6.964;2022-09-09T15:43:52;9.98;;;9.32;;
39218;SDS011;24934;52.752;6.964;2022-09-09T15:48:58;10.27;;;9.68;;
39218;SDS011;24934;52.752;6.964;2022-09-09T15:51:35;9.63;;;9.13;;
39218;SDS011;24934;52.752;6.964;2022-09-09T15:54:02;8.90;;;8.40;;
39218;SDS011;24934;52.752;6.964;2022-09-09T15:56:28;10.98;;;10.27;;
39218;SDS011;24934;52.752;6.964;2022-09-09T15:58:58;9.70;;;9.10;;
39218;SDS011;24934;52.752;6.964;2022-09-09T16:01:27;10.93;;;10.32;;
39218;SDS011;24934;52.752;6.964;2022-09-09T16:03:53;10.98;;;10.32;;
39218;SDS011;24934;52.752;6.964;2022-09-09T16:06:19;10.85;;;10.25;;
39218;SDS011;24934;52.752;6.964;2022-09-09T16:08:47;10.50;;;9.52;;
39218;SDS011;24934;52.752;6.964;2022-09-09T16:11:25;9.70;;;9.20;;
39218;SDS011;24934;52.752;6.964;2022-09-09T16:13:54;10.10;;;9.50;;
39218;SDS011;24934;52.752;6.964;2022-09-09T16:16:21;10.15;;;9.55;;
39218;SDS011;24934;52.752;6.964;2022-09-09T16:18:49;9.93;;;9.32;;
39218;SDS011;24934;52.752;6.964;2022-09-09T16:21:24;10.65;;;9.95;;
39218;SDS011;24934;52.752;6.964;2022-09-09T16:23:59;11.27;;;10.38;;
39218;SDS011;24934;52.752;6.964;2022-09-09T16:26:26;9.20;;;8.70;;
39218;SDS011;24934;52.752;6.964;2022-09-09T16:28:52;10.10;;;9.50;;
39218;SDS011;24934;52.752;6.964;2022-09-09T16:31:21;9.85;;;9.25;;
39218;SDS011;24934;52.752;6.964;2022-09-09T16:33:48;9.40;;;8.80;;
39218;SDS011;24934;52.752;6.964;2022-09-09T16:36:24;9.10;;;8.57;;
39218;SDS011;24934;52.752;6.964;2022-09-09T16:38:53;8.85;;;8.35;;
39218;SDS011;24934;52.752;6.964;2022-09-09T16:41:22;9.07;;;8.57;;
39218;SDS011;24934;52.752;6.964;2022-09-09T16:43:54;9.15;;;8.65;;
39218;SDS011;24934;52.752;6.964;2022-09-09T16:46:24;9.65;;;9.05;;
39218;SDS011;24934;52.752;6.964;2022-09-09T16:48:52;8.80;;;8.30;;
39218;SDS011;24934;52.752;6.964;2022-09-09T16:51:24;9.20;;;8.63;;